Time;durP1;ratioP1;P1;durP2;ratioP2;P2;SDS_P1;SDS_P2;PMS_P1;PMS_P2;Temp;Humidity;BMP_temperature;BMP_pressure;BME280_temperature;BME280_humidity;BME280_pressure;Samples;Min_cycle;Max_cycle;Signal;HPM_P1;HPM_P2
2020/12/14 00:00:33;;;;;;;12.20;2.30;;;3.30;99.90;;;;;;5043803;28;20489;-62
2020/12/14 00:02:59;;;;;;;9.43;2.05;;;3.30;99.90;;;;;;5061659;28;20126;-62
2020/12/14 00:05:25;;;;;;;8.15;1.73;;;3.30;99.90;;;;;;5074037;28;20037;-62
2020/12/14 00:07:50;;;;;;;7.35;2.03;;;3.30;99.90;;;;;;5081085;28;20682;-62
2020/12/14 00:10:16;;;;;;;9.25;2.33;;;3.30;99.90;;;;;;5081394;28;20032;-61
2020/12/14 00:12:41;;;;;;;7.07;1.90;;;3.30;99.90;;;;;;5079035;28;20055;-61
2020/12/14 00:15:07;;;;;;;7.95;2.55;;;3.30;99.90;;;;;;5065406;28;20052;-61
2020/12/14 00:17:33;;;;;;;14.88;3.75;;;3.30;99.90;;;;;;5059820;28;20397;-61
2020/12/14 00:19:59;;;;;;;;;;;3.30;99.90;;;;;;5065934;28;20099;-62
2020/12/14 00:22:28;;;;;;;4.30;2.30;;;3.30;99.90;;;;;;5057206;28;19920;-61
2020/12/14 00:24:54;;;;;;;6.97;2.20;;;3.30;99.90;;;;;;5061524;28;20044;-58
2020/12/14 00:27:19;;;;;;;8.10;2.72;;;3.30;99.90;;;;;;5061122;28;20472;-61
2020/12/14 00:29:45;;;;;;;9.27;2.10;;;3.30;99.90;;;;;;5056892;28;20036;-61
2020/12/14 00:32:10;;;;;;;9.90;2.40;;;3.30;99.90;;;;;;5048394;28;20172;-62
2020/12/14 00:34:36;;;;;;;7.32;2.55;;;3.20;99.90;;;;;;5057107;28;20066;-61
2020/12/14 00:37:03;;;;;;;7.50;2.17;;;3.20;99.90;;;;;;5067171;28;20033;-61
2020/12/14 00:39:29;;;;;;;5.53;2.17;;;3.30;99.90;;;;;;5059229;28;20032;-62
2020/12/14 00:41:54;;;;;;;8.48;2.40;;;3.30;99.90;;;;;;5047761;28;20709;-62
2020/12/14 00:44:20;;;;;;;7.15;2.10;;;3.30;99.90;;;;;;5049997;28;20041;-61
2020/12/14 00:46:46;;;;;;;7.78;2.53;;;3.30;99.90;;;;;;5053590;28;20044;-63
2020/12/14 00:49:12;;;;;;;8.40;1.98;;;3.30;99.90;;;;;;5066132;28;20041;-61
2020/12/14 00:51:37;;;;;;;7.88;2.38;;;3.30;99.90;;;;;;5067085;28;20052;-61
2020/12/14 00:54:03;;;;;;;13.18;3.38;;;3.30;99.90;;;;;;5066208;28;20496;-63
2020/12/14 00:56:29;;;;;;;;;;;3.30;99.90;;;;;;5062486;28;20049;-61
2020/12/14 00:58:54;;;;;;;7.65;1.45;;;3.30;99.90;;;;;;5053903;28;19916;-61
2020/12/14 01:01:20;;;;;;;9.27;2.25;;;3.30;99.90;;;;;;5047449;28;20546;-61
2020/12/14 01:03:46;;;;;;;4.93;1.75;;;3.30;99.90;;;;;;5047884;28;20826;-62
2020/12/14 01:06:12;;;;;;;8.05;1.80;;;3.30;99.90;;;;;;5064205;28;20117;-62
2020/12/14 01:08:39;;;;;;;6.03;1.73;;;3.30;99.90;;;;;;5052723;28;20049;-62
2020/12/14 01:11:05;;;;;;;9.88;2.03;;;3.30;99.90;;;;;;5049206;28;20036;-62
2020/12/14 01:13:31;;;;;;;7.85;2.05;;;3.40;99.90;;;;;;5060831;28;20082;-62
2020/12/14 01:15:56;;;;;;;5.93;1.73;;;3.40;99.90;;;;;;5056775;28;20036;-61
2020/12/14 01:18:22;;;;;;;4.43;1.52;;;3.40;99.90;;;;;;5048797;28;20741;-63
2020/12/14 01:20:47;;;;;;;;;;;3.40;99.90;;;;;;5054250;28;20036;-61
2020/12/14 01:23:13;;;;;;;6.40;1.90;;;3.40;99.90;;;;;;5066208;28;20395;-62
2020/12/14 01:25:39;;;;;;;8.10;2.03;;;3.40;99.90;;;;;;5064986;28;20825;-61
2020/12/14 01:28:06;;;;;;;7.80;1.80;;;3.40;99.90;;;;;;5047853;28;20072;-62
2020/12/14 01:30:34;;;;;;;16.02;2.65;;;3.40;99.90;;;;;;5053705;28;20037;-62
2020/12/14 01:33:00;;;;;;;10.73;2.22;;;3.40;99.90;;;;;;5047551;28;20041;-62
2020/12/14 01:35:25;;;;;;;4.97;1.60;;;3.40;99.90;;;;;;5047053;28;20527;-62
2020/12/14 01:37:51;;;;;;;4.88;1.65;;;3.40;99.90;;;;;;5048212;28;20032;-61
2020/12/14 01:40:18;;;;;;;4.50;2.00;;;3.50;99.90;;;;;;5056299;28;20040;-62
2020/12/14 01:42:48;;;;;;;7.45;1.83;;;3.50;99.90;;;;;;5064395;28;20125;-62
2020/12/14 01:45:18;;;;;;;8.40;1.83;;;3.50;99.90;;;;;;5056302;28;20047;-61
2020/12/14 01:47:46;;;;;;;6.20;1.77;;;3.50;99.90;;;;;;5054097;28;20037;-62
2020/12/14 01:50:13;;;;;;;3.13;1.80;;;3.50;99.90;;;;;;5046865;28;20033;-63
2020/12/14 01:52:46;;;;;;;7.63;2.67;;;3.50;99.90;;;;;;5046163;28;20171;-62
2020/12/14 01:55:18;;;;;;;3.38;2.17;;;3.50;99.90;;;;;;5048332;28;20040;-62
2020/12/14 01:57:45;;;;;;;6.95;2.00;;;3.50;99.90;;;;;;5061727;28;20032;-62
2020/12/14 02:00:13;;;;;;;8.80;2.30;;;3.50;99.90;;;;;;5064638;28;20032;-62
2020/12/14 02:02:39;;;;;;;5.90;1.80;;;3.50;99.90;;;;;;5049751;28;20133;-63
2020/12/14 02:05:07;;;;;;;6.47;2.25;;;3.50;99.90;;;;;;5045515;28;20137;-62
2020/12/14 02:07:33;;;;;;;9.85;2.38;;;3.40;99.90;;;;;;5045671;28;20493;-62
2020/12/14 02:09:58;;;;;;;7.70;2.03;;;3.40;99.90;;;;;;5045671;28;20043;-61
2020/12/14 02:12:26;;;;;;;5.78;1.98;;;3.40;99.90;;;;;;5054044;28;20041;-61
2020/12/14 02:14:52;;;;;;;9.18;2.28;;;3.40;99.90;;;;;;5046655;28;20072;-62
2020/12/14 02:17:20;;;;;;;8.85;2.08;;;3.40;99.90;;;;;;5055321;28;20074;-61
2020/12/14 02:19:47;;;;;;;9.77;2.38;;;3.40;99.90;;;;;;5055748;28;20083;-61
2020/12/14 02:22:15;;;;;;;4.15;2.00;;;3.40;99.90;;;;;;5045524;28;20041;-59
2020/12/14 02:24:45;;;;;;;7.25;1.92;;;3.40;99.90;;;;;;5046003;28;20441;-61
2020/12/14 02:27:14;;;;;;;9.13;2.70;;;3.30;99.90;;;;;;5049658;28;20438;-62
2020/12/14 02:29:42;;;;;;;7.53;2.10;;;3.30;99.90;;;;;;5052965;28;20037;-62
2020/12/14 02:32:11;;;;;;;6.13;2.20;;;3.30;99.90;;;;;;5047783;28;20523;-61
2020/12/14 02:34:39;;;;;;;12.20;2.40;;;3.40;99.90;;;;;;5054300;28;20394;-61
2020/12/14 02:37:07;;;;;;;4.70;1.95;;;3.40;99.90;;;;;;5050496;28;20028;-61
2020/12/14 02:39:33;;;;;;;4.50;2.28;;;3.50;99.90;;;;;;5052018;28;20043;-62
2020/12/14 02:42:00;;;;;;;6.30;2.08;;;3.50;99.90;;;;;;5047663;28;20044;-63
2020/12/14 02:44:25;;;;;;;7.40;1.95;;;3.70;99.90;;;;;;5055735;28;20053;-62
2020/12/14 02:46:51;;;;;;;9.32;2.50;;;3.70;99.90;;;;;;5054486;28;20043;-60
2020/12/14 02:49:16;;;;;;;5.40;1.55;;;3.70;99.90;;;;;;5064925;28;20040;-62
2020/12/14 02:51:42;;;;;;;8.15;1.95;;;3.80;99.90;;;;;;5065250;28;20404;-61
2020/12/14 02:54:07;;;;;;;7.10;1.98;;;3.80;99.90;;;;;;5061688;28;20075;-61
2020/12/14 02:56:33;;;;;;;6.13;2.20;;;3.90;99.90;;;;;;5053389;28;20393;-62
2020/12/14 02:58:59;;;;;;;7.10;1.85;;;3.90;99.90;;;;;;5050136;28;20045;-61
2020/12/14 03:01:24;;;;;;;5.80;1.60;;;3.90;99.90;;;;;;5047176;28;20064;-61
2020/12/14 03:03:50;;;;;;;12.77;2.08;;;4.00;99.90;;;;;;5065102;28;20543;-61
2020/12/14 03:06:16;;;;;;;8.65;1.73;;;4.00;99.90;;;;;;5065480;28;20041;-62
2020/12/14 03:08:41;;;;;;;13.20;1.95;;;4.00;99.90;;;;;;5064366;28;20078;-62
2020/12/14 03:11:07;;;;;;;11.60;2.47;;;4.00;99.90;;;;;;5056316;28;20054;-63
2020/12/14 03:13:32;;;;;;;6.72;1.50;;;4.00;99.90;;;;;;5062610;28;20133;-62
2020/12/14 03:15:58;;;;;;;;;;;4.00;99.90;;;;;;5056810;28;20036;-62
2020/12/14 03:18:24;;;;;;;6.22;2.10;;;4.00;99.90;;;;;;5046885;28;19917;-62
2020/12/14 03:20:49;;;;;;;9.32;2.50;;;4.00;99.90;;;;;;5050860;28;20122;-61
2020/12/14 03:23:15;;;;;;;5.05;2.13;;;4.00;99.90;;;;;;5045896;28;20041;-62
2020/12/14 03:25:41;;;;;;;7.88;2.50;;;4.00;99.90;;;;;;5046668;28;20040;-63
2020/12/14 03:28:06;;;;;;;6.82;2.83;;;4.00;99.90;;;;;;5050154;28;20426;-63
2020/12/14 03:30:32;;;;;;;9.85;2.33;;;4.00;99.90;;;;;;5045492;28;20043;-62
2020/12/14 03:32:57;;;;;;;;;;;4.10;99.90;;;;;;5047426;28;20044;-61
2020/12/14 03:35:23;;;;;;;8.88;2.47;;;4.10;99.90;;;;;;5046030;28;19917;-61
2020/12/14 03:37:49;;;;;;;;;;;4.10;99.90;;;;;;5050150;28;20053;-63
2020/12/14 03:40:15;;;;;;;7.97;2.45;;;4.10;99.90;;;;;;5044614;28;20289;-61
2020/12/14 03:42:42;;;;;;;7.32;2.85;;;4.10;99.90;;;;;;5061601;28;20203;-62
2020/12/14 03:45:07;;;;;;;8.05;2.75;;;4.10;99.90;;;;;;5055180;28;20037;-62
2020/12/14 03:47:33;;;;;;;9.48;2.25;;;4.10;99.90;;;;;;5053031;28;20048;-63
2020/12/14 03:49:58;;;;;;;5.40;2.35;;;4.20;99.90;;;;;;5053639;28;20160;-62
2020/12/14 03:52:25;;;;;;;11.20;2.95;;;4.10;99.90;;;;;;5051793;28;20116;-62
2020/12/14 03:54:51;;;;;;;8.77;2.30;;;4.10;99.90;;;;;;5057583;28;20040;-62
2020/12/14 03:57:16;;;;;;;4.97;2.22;;;4.10;99.90;;;;;;5066895;28;20142;-62
2020/12/14 03:59:42;;;;;;;11.23;2.30;;;4.10;99.90;;;;;;5068855;28;20045;-62
2020/12/14 04:02:07;;;;;;;5.68;2.83;;;4.10;99.90;;;;;;5067862;28;20043;-62
2020/12/14 04:04:33;;;;;;;11.18;3.08;;;4.10;99.90;;;;;;5067732;28;20397;-62
2020/12/14 04:06:59;;;;;;;7.50;4.25;;;4.10;99.90;;;;;;5065999;28;20562;-61
2020/12/14 04:09:24;;;;;;;9.52;3.40;;;4.10;99.90;;;;;;5069148;28;20555;-63
2020/12/14 04:11:50;;;;;;;8.90;3.88;;;4.10;99.90;;;;;;5062877;28;20708;-62
2020/12/14 04:14:16;;;;;;;10.13;3.85;;;4.00;99.90;;;;;;5064429;28;20067;-63
2020/12/14 04:16:42;;;;;;;9.23;3.67;;;3.90;99.90;;;;;;5055481;28;20033;-63
2020/12/14 04:19:09;;;;;;;4.93;2.83;;;3.90;99.90;;;;;;5053136;28;20037;-62
2020/12/14 04:21:35;;;;;;;9.20;3.03;;;3.90;99.90;;;;;;5064823;28;20037;-62
2020/12/14 04:24:01;;;;;;;8.90;3.17;;;3.90;99.90;;;;;;5049070;28;20041;-62
2020/12/14 04:26:26;;;;;;;9.13;3.10;;;3.90;99.90;;;;;;5052785;28;20106;-62
2020/12/14 04:28:52;;;;;;;;;;;3.90;99.90;;;;;;5057641;28;20556;-62
2020/12/14 04:31:17;;;;;;;8.68;3.28;;;3.90;99.90;;;;;;5049137;28;19916;-62
2020/12/14 04:33:43;;;;;;;;;;;3.90;99.90;;;;;;5048962;28;20566;-60
2020/12/14 04:36:09;;;;;;;10.50;3.85;;;3.90;99.90;;;;;;5050756;28;20535;-62
2020/12/14 04:38:34;;;;;;;11.10;4.95;;;3.90;99.90;;;;;;5063267;28;20123;-63
2020/12/14 04:41:03;;;;;;;;;;;3.90;99.90;;;;;;5049678;28;20033;-62
2020/12/14 04:43:29;;;;;;;6.72;4.10;;;3.90;99.90;;;;;;5056806;28;19928;-62
2020/12/14 04:45:55;;;;;;;11.02;4.38;;;3.90;99.90;;;;;;5054003;28;20037;-61
2020/12/14 04:48:22;;;;;;;10.13;4.43;;;3.90;99.90;;;;;;5059679;28;20044;-62
2020/12/14 04:50:48;;;;;;;9.85;4.90;;;3.90;99.90;;;;;;5049686;28;20041;-62
2020/12/14 04:53:13;;;;;;;12.15;5.22;;;3.80;99.90;;;;;;5048822;28;20056;-62
2020/12/14 04:55:39;;;;;;;28.17;8.13;;;3.80;99.90;;;;;;5055649;28;20028;-63
2020/12/14 04:58:05;;;;;;;8.20;4.22;;;3.80;99.90;;;;;;5066742;28;20094;-62
2020/12/14 05:00:31;;;;;;;13.88;5.13;;;3.80;99.90;;;;;;5051542;28;20075;-63
2020/12/14 05:02:57;;;;;;;8.60;4.22;;;3.80;99.90;;;;;;5048108;28;20669;-60
2020/12/14 05:05:23;;;;;;;7.53;4.05;;;3.80;99.90;;;;;;5048686;28;20037;-62
2020/12/14 05:07:49;;;;;;;15.65;5.47;;;3.80;99.90;;;;;;5049747;28;20492;-62
2020/12/14 05:10:15;;;;;;;9.60;4.47;;;3.90;99.90;;;;;;5052922;28;20037;-61
2020/12/14 05:12:41;;;;;;;;;;;3.80;99.90;;;;;;5048371;28;20477;-61
2020/12/14 05:15:21;;;;;;;8.63;3.88;;;3.80;99.90;;;;;;5048791;28;19955;-61
2020/12/14 05:17:49;;;;;;;10.25;4.32;;;3.80;99.90;;;;;;5067087;28;20043;-62
2020/12/14 05:20:19;;;;;;;11.40;4.95;;;3.80;99.90;;;;;;5056495;28;20051;-62
2020/12/14 05:22:58;;;;;;;12.82;5.85;;;3.80;99.90;;;;;;5048496;28;20048;-61
2020/12/14 05:25:24;;;;;;;10.88;5.40;;;3.70;99.90;;;;;;5047843;28;20041;-62
2020/12/14 05:28:00;;;;;;;12.73;5.88;;;3.80;99.90;;;;;;5048384;28;20455;-61
2020/12/14 05:30:36;;;;;;;10.98;5.55;;;3.70;99.90;;;;;;5055331;28;20393;-60
2020/12/14 05:33:02;;;;;;;14.17;5.53;;;3.70;99.90;;;;;;5054083;28;20123;-64
2020/12/14 05:35:39;;;;;;;16.25;6.47;;;3.70;99.90;;;;;;5056245;28;20279;-64
2020/12/14 05:38:44;;;;;;;15.02;5.80;;;3.70;99.90;;;;;;5051391;28;20123;-64
2020/12/14 05:41:10;;;;;;;10.70;6.18;;;3.70;99.90;;;;;;5051065;28;20113;-64
2020/12/14 05:43:36;;;;;;;12.77;6.32;;;3.70;99.90;;;;;;5052083;28;20056;-63
2020/12/14 05:46:12;;;;;;;14.00;6.20;;;3.60;99.90;;;;;;5053772;28;20036;-63
2020/12/14 05:48:38;;;;;;;15.95;6.95;;;3.60;99.90;;;;;;5053048;28;20051;-65
2020/12/14 05:51:06;;;;;;;9.85;5.82;;;3.60;99.90;;;;;;5052339;28;20048;-64
2020/12/14 05:53:38;;;;;;;12.07;6.35;;;3.60;99.90;;;;;;5056156;28;20588;-65
2020/12/14 05:56:10;;;;;;;14.88;6.43;;;3.60;99.90;;;;;;5048309;28;20098;-64
2020/12/14 05:58:38;;;;;;;11.70;6.13;;;3.60;99.90;;;;;;5051833;28;20041;-63
2020/12/14 06:01:05;;;;;;;13.70;6.75;;;3.60;99.90;;;;;;5065709;28;20032;-64
2020/12/14 06:03:31;;;;;;;11.43;6.60;;;3.70;99.90;;;;;;5066180;28;20177;-63
2020/12/14 06:05:58;;;;;;;11.68;5.93;;;3.70;99.90;;;;;;5066182;28;20476;-64
2020/12/14 06:08:46;;;;;;;14.73;6.43;;;3.70;99.90;;;;;;5064600;28;20097;-64
2020/12/14 06:11:18;;;;;;;12.38;6.43;;;3.80;99.90;;;;;;5047545;28;20033;-64
2020/12/14 06:13:52;;;;;;;15.30;5.72;;;3.80;99.90;;;;;;5048773;28;20212;-65
2020/12/14 06:16:22;;;;;;;22.90;6.78;;;3.90;99.90;;;;;;5049479;28;20040;-65
2020/12/14 06:18:49;;;;;;;14.73;6.13;;;3.90;99.90;;;;;;5048847;28;20047;-66
2020/12/14 06:21:28;;;;;;;11.73;5.57;;;3.90;99.90;;;;;;5046293;28;20120;-66
2020/12/14 06:23:56;;;;;;;11.32;5.43;;;3.90;99.90;;;;;;5057986;28;20136;-65
2020/12/14 06:26:23;;;;;;;11.10;5.53;;;4.00;99.90;;;;;;5060829;28;20417;-66
2020/12/14 06:28:53;;;;;;;14.82;5.60;;;4.00;99.90;;;;;;5053866;28;20399;-65
2020/12/14 06:31:37;;;;;;;12.60;5.70;;;4.00;99.90;;;;;;5046597;28;20033;-62
2020/12/14 06:34:32;;;;;;;8.90;5.00;;;4.10;99.90;;;;;;5059075;28;20047;-62
2020/12/14 06:37:02;;;;;;;11.15;6.45;;;4.20;99.90;;;;;;5042205;28;20090;-62
2020/12/14 06:39:30;;;;;;;11.30;6.30;;;4.20;99.90;;;;;;5066529;28;20045;-62
2020/12/14 06:42:21;;;;;;;22.73;7.38;;;4.20;99.90;;;;;;5049712;28;20540;-64
2020/12/14 06:44:46;;;;;;;15.15;5.47;;;4.20;99.90;;;;;;5055196;28;20389;-63
2020/12/14 06:47:21;;;;;;;11.38;5.00;;;4.20;99.90;;;;;;5050665;28;20123;-63
2020/12/14 06:49:47;;;;;;;10.98;5.40;;;4.30;99.90;;;;;;5047839;28;20037;-64
2020/12/14 06:52:33;;;;;;;10.82;5.82;;;4.30;99.90;;;;;;5047041;28;20089;-64
2020/12/14 06:54:58;;;;;;;16.15;5.50;;;4.30;99.90;;;;;;5065369;28;20408;-65
2020/12/14 06:57:36;;;;;;;9.25;4.80;;;4.30;99.90;;;;;;5061532;28;20047;-65
2020/12/14 07:00:05;;;;;;;13.90;7.00;;;4.30;99.90;;;;;;5062019;28;20036;-66
2020/12/14 07:02:36;;;;;;;10.80;5.57;;;4.40;99.90;;;;;;5048047;28;20044;-62
2020/12/14 07:05:03;;;;;;;9.45;4.80;;;4.40;99.90;;;;;;5058349;28;20070;-62
2020/12/14 07:07:32;;;;;;;11.15;5.05;;;4.40;99.90;;;;;;5049435;28;20410;-61
2020/12/14 07:10:12;;;;;;;10.40;5.25;;;4.40;99.90;;;;;;5057550;28;20423;-65
2020/12/14 07:12:42;;;;;;;11.32;5.10;;;4.40;99.90;;;;;;5066792;28;20048;-66
2020/12/14 07:15:22;;;;;;;14.80;5.20;;;4.40;99.90;;;;;;5057844;28;20136;-66
2020/12/14 07:17:59;;;;;;;8.88;4.80;;;4.50;99.90;;;;;;5053507;28;20068;-65
2020/12/14 07:20:25;;;;;;;10.77;5.68;;;4.40;99.90;;;;;;5055508;28;20047;-64
2020/12/14 07:22:51;;;;;;;8.02;5.22;;;4.40;99.90;;;;;;5066344;28;20127;-64
2020/12/14 07:25:21;;;;;;;13.23;4.90;;;4.50;99.90;;;;;;5068443;28;20036;-65
2020/12/14 07:27:47;;;;;;;10.73;5.00;;;4.50;99.90;;;;;;5053802;28;20040;-65
2020/12/14 07:30:13;;;;;;;12.32;4.75;;;4.50;99.90;;;;;;5059712;28;20400;-66
2020/12/14 07:32:39;;;;;;;;;;;4.50;99.90;;;;;;5058392;28;20025;-65
2020/12/14 07:35:06;;;;;;;13.23;4.85;;;4.60;99.90;;;;;;5065986;28;19916;-66
2020/12/14 07:37:33;;;;;;;10.45;5.00;;;4.60;99.90;;;;;;5051612;28;20025;-64
2020/12/14 07:39:58;;;;;;;12.02;6.53;;;4.60;99.90;;;;;;5058383;28;20188;-65
2020/12/14 07:42:25;;;;;;;8.05;4.75;;;4.60;99.90;;;;;;5067269;28;20550;-64
2020/12/14 07:45:25;;;;;;;11.27;5.45;;;4.60;99.90;;;;;;5060885;28;20032;-64
2020/12/14 07:47:52;;;;;;;9.10;4.88;;;4.60;99.90;;;;;;5031497;28;20436;-65
2020/12/14 07:50:24;;;;;;;12.95;5.32;;;4.60;99.90;;;;;;5029858;28;20046;-63
2020/12/14 07:52:53;;;;;;;12.35;4.90;;;4.60;99.90;;;;;;5037241;28;20061;-65
2020/12/14 07:55:19;;;;;;;8.15;5.40;;;4.60;99.90;;;;;;5036253;28;20040;-65
2020/12/14 07:57:46;;;;;;;9.27;5.43;;;4.60;99.90;;;;;;5029964;28;20045;-68
2020/12/14 08:00:14;;;;;;;12.18;5.65;;;4.60;99.90;;;;;;5031967;28;20932;-65
2020/12/14 08:02:41;;;;;;;9.38;5.00;;;4.60;99.90;;;;;;5045291;28;20114;-64
2020/12/14 08:05:11;;;;;;;10.20;5.38;;;4.60;99.90;;;;;;5047288;28;20036;-67
2020/12/14 08:07:56;;;;;;;10.38;5.90;;;4.60;99.90;;;;;;5041446;28;20044;-62
2020/12/14 08:10:30;;;;;;;8.98;5.25;;;4.60;99.90;;;;;;5041052;28;20458;-64
2020/12/14 08:12:58;;;;;;;11.98;5.93;;;4.70;99.90;;;;;;5047148;28;20040;-63
2020/12/14 08:15:25;;;;;;;10.23;5.55;;;4.70;99.90;;;;;;5049272;28;20373;-65
2020/12/14 08:38:34;;;;;;;11.23;4.53;;;4.90;99.90;;;;;;5526230;23;20046;-63
2020/12/14 08:41:03;;;;;;;13.63;4.70;;;4.90;99.90;;;;;;4980368;28;20547;-61
2020/12/14 08:43:31;;;;;;;5.28;3.80;;;4.90;99.90;;;;;;4981001;28;20642;-63
2020/12/14 08:46:08;;;;;;;8.32;4.63;;;5.00;99.90;;;;;;4986231;28;20042;-67
2020/12/14 08:48:52;;;;;;;6.40;3.70;;;5.00;99.90;;;;;;4993025;28;20034;-67
2020/12/14 08:51:23;;;;;;;6.25;3.33;;;5.00;99.90;;;;;;4977597;28;20038;-67
2020/12/14 08:53:50;;;;;;;6.10;3.40;;;5.10;99.90;;;;;;4997483;28;20048;-66
2020/12/14 08:56:19;;;;;;;6.40;3.45;;;5.20;99.90;;;;;;4998478;28;20050;-62
2020/12/14 08:58:52;;;;;;;7.35;3.22;;;5.30;99.90;;;;;;4986134;28;20496;-63
2020/12/14 09:01:20;;;;;;;7.15;3.03;;;5.40;99.90;;;;;;4984820;28;20090;-63
2020/12/14 09:03:57;;;;;;;5.68;3.33;;;5.40;99.90;;;;;;4987439;28;20042;-63
2020/12/14 09:06:31;;;;;;;8.02;3.08;;;5.40;99.90;;;;;;4989488;28;20811;-65
2020/12/14 09:09:15;;;;;;;5.78;3.13;;;5.40;99.90;;;;;;4988991;28;20038;-63
2020/12/14 09:11:46;;;;;;;5.55;2.75;;;5.40;99.90;;;;;;4993989;28;20042;-63
2020/12/14 09:14:27;;;;;;;4.13;2.70;;;5.40;99.90;;;;;;4989095;28;20038;-66
2020/12/14 09:16:55;;;;;;;5.05;2.65;;;5.50;99.90;;;;;;4991734;28;20065;-64
2020/12/14 09:19:29;;;;;;;5.60;2.95;;;5.60;99.90;;;;;;4993009;28;20620;-63
2020/12/14 09:21:55;;;;;;;4.97;2.50;;;5.60;99.90;;;;;;4980302;28;20093;-63
2020/12/14 09:24:21;;;;;;;6.70;3.13;;;5.50;99.90;;;;;;4987202;28;20459;-60
2020/12/14 09:26:47;;;;;;;;;;;5.60;99.90;;;;;;4983049;28;20049;-65
2020/12/14 09:29:14;;;;;;;4.43;2.15;;;5.60;99.90;;;;;;4986268;28;19928;-66
2020/12/14 09:31:47;;;;;;;10.80;7.07;;;5.50;99.90;;;;;;4979352;28;20038;-64
2020/12/14 09:34:12;;;;;;;6.78;3.38;;;5.50;99.90;;;;;;4987059;28;20053;-63
2020/12/14 09:36:38;;;;;;;;;;;5.50;99.90;;;;;;4982347;28;20053;-64
2020/12/14 09:39:03;;;;;;;7.00;2.90;;;5.50;99.90;;;;;;4979376;28;19957;-66
2020/12/14 09:41:29;;;;;;;;;;;5.60;99.90;;;;;;4984293;28;20073;-65
2020/12/14 09:43:55;;;;;;;4.47;2.53;;;5.60;99.90;;;;;;4984645;28;19936;-64
2020/12/14 09:46:27;;;;;;;4.93;2.42;;;5.50;99.90;;;;;;4984233;28;20030;-65
2020/12/14 09:48:55;;;;;;;5.13;2.42;;;5.60;99.90;;;;;;4983179;28;20035;-65
2020/12/14 09:51:21;;;;;;;4.45;2.40;;;5.60;99.90;;;;;;4982322;28;20035;-65
2020/12/14 09:53:46;;;;;;;4.28;2.17;;;5.60;99.90;;;;;;4989156;28;20046;-69
2020/12/14 09:56:12;;;;;;;;;;;5.60;99.90;;;;;;5007447;28;20037;-63
2020/12/14 09:58:38;;;;;;;6.05;3.25;;;5.60;99.90;;;;;;4982855;28;20514;-65
2020/12/14 10:01:05;;;;;;;;;;;5.70;99.90;;;;;;4982778;28;20034;-70
2020/12/14 10:03:30;;;;;;;;;;;5.80;99.90;;;;;;4981613;28;19937;-65
2020/12/14 10:05:56;;;;;;;;;;;5.90;99.90;;;;;;4985715;28;19925;-67
2020/12/14 10:08:21;;;;;;;;;;;6.00;99.90;;;;;;4989358;28;19936;-65
2020/12/14 10:10:49;;;;;;;;;;;6.00;99.90;;;;;;4982325;28;19918;-62
2020/12/14 10:13:14;;;;;;;;;;;6.10;99.90;;;;;;4984576;28;19921;-64
2020/12/14 10:15:40;;;;;;;;;;;6.10;99.90;;;;;;4984841;28;20352;-65
2020/12/14 10:18:05;;;;;;;;;;;6.10;99.90;;;;;;4980264;28;19948;-66
2020/12/14 10:20:31;;;;;;;;;;;6.10;99.90;;;;;;4984478;28;20301;-65
2020/12/14 10:22:57;;;;;;;;;;;6.10;99.90;;;;;;4981486;28;21262;-64
2020/12/14 10:25:24;;;;;;;;;;;6.10;99.90;;;;;;5000499;28;19996;-64
2020/12/14 10:27:50;;;;;;;;;;;6.10;99.90;;;;;;4984378;28;19917;-65
2020/12/14 10:30:15;;;;;;;;;;;6.20;99.90;;;;;;4985835;28;19925;-64
2020/12/14 10:32:41;;;;;;;;;;;6.20;99.90;;;;;;4986037;28;19992;-64
2020/12/14 10:35:06;;;;;;;;;;;6.20;99.90;;;;;;4985127;28;19924;-66
2020/12/14 10:37:32;;;;;;;;;;;6.20;99.90;;;;;;4983132;28;19913;-63
2020/12/14 10:39:58;;;;;;;;;;;6.20;99.90;;;;;;4990881;28;20433;-62
2020/12/14 10:42:23;;;;;;;;;;;6.10;99.90;;;;;;4985108;28;19928;-63
2020/12/14 10:44:49;;;;;;;;;;;6.00;99.90;;;;;;4986457;28;19937;-62
2020/12/14 10:47:14;;;;;;;;;;;6.00;99.90;;;;;;4989915;28;19953;-62
2020/12/14 10:49:40;;;;;;;;;;;6.00;99.90;;;;;;4985222;28;19922;-61
2020/12/14 10:52:05;;;;;;;;;;;6.00;99.90;;;;;;4985228;28;19933;-61
2020/12/14 10:54:31;;;;;;;;;;;6.00;99.90;;;;;;4984646;28;19921;-61
2020/12/14 10:56:56;;;;;;;;;;;6.00;99.90;;;;;;4984294;28;20028;-60
2020/12/14 10:59:22;;;;;;;;;;;6.10;99.90;;;;;;4984307;28;19929;-61
2020/12/14 11:01:51;;;;;;;;;;;6.10;99.90;;;;;;4986658;28;19922;-61
2020/12/14 11:04:17;;;;;;;;;;;6.20;99.90;;;;;;4986350;28;20624;-61
2020/12/14 11:06:42;;;;;;;;;;;6.30;99.90;;;;;;4986727;28;19930;-62
2020/12/14 11:09:08;;;;;;;;;;;6.30;99.90;;;;;;4984715;28;19918;-61
2020/12/14 11:11:35;;;;;;;;;;;6.30;99.90;;;;;;4986157;28;20414;-62
2020/12/14 11:14:01;;;;;;;;;;;6.40;99.90;;;;;;4985192;28;20004;-62
2020/12/14 11:16:27;;;;;;;;;;;6.60;99.90;;;;;;4986745;28;19929;-62
2020/12/14 11:18:53;;;;;;;;;;;6.80;99.90;;;;;;4985174;28;19922;-62
2020/12/14 11:21:19;;;;;;;;;;;6.80;99.90;;;;;;4983910;28;19921;-63
2020/12/14 11:23:45;;;;;;;;;;;7.00;99.90;;;;;;4984907;28;19925;-63
2020/12/14 11:26:10;;;;;;;;;;;7.20;99.90;;;;;;4985812;28;19918;-63
2020/12/14 11:28:36;;;;;;;;;;;7.30;99.90;;;;;;4982283;23;20393;-63
2020/12/14 11:31:02;;;;;;;;;;;7.40;99.90;;;;;;4984736;28;20055;-63
2020/12/14 11:33:27;;;;;;;;;;;7.30;99.90;;;;;;4984731;28;19922;-62
2020/12/14 11:35:53;;;;;;;;;;;7.10;99.90;;;;;;4984789;28;19922;-62
2020/12/14 11:38:18;;;;;;;;;;;7.20;99.90;;;;;;4984565;28;19956;-63
2020/12/14 11:40:44;;;;;;;;;;;7.20;99.90;;;;;;4985761;28;19980;-63
2020/12/14 11:43:09;;;;;;;;;;;7.30;99.90;;;;;;4985093;28;20280;-63
2020/12/14 11:45:35;;;;;;;;;;;7.40;99.90;;;;;;4984968;28;19913;-63
2020/12/14 11:48:01;;;;;;;;;;;7.50;99.90;;;;;;4985096;28;19996;-62
2020/12/14 11:50:26;;;;;;;;;;;7.70;99.90;;;;;;4983089;28;19924;-62
2020/12/14 11:52:52;;;;;;;;;;;7.70;99.90;;;;;;4983651;28;19925;-62
2020/12/14 11:55:17;;;;;;;;;;;7.80;99.90;;;;;;5000794;28;19929;-62
2020/12/14 11:57:43;;;;;;;;;;;7.90;99.90;;;;;;4984271;28;20162;-63
2020/12/14 12:00:10;;;;;;;;;;;7.90;99.90;;;;;;4998298;28;19972;-63
2020/12/14 12:02:36;;;;;;;;;;;7.90;99.90;;;;;;4983728;28;19917;-62
2020/12/14 12:05:02;;;;;;;;;;;7.80;99.90;;;;;;4984523;28;19972;-63
2020/12/14 12:07:27;;;;;;;;;;;7.80;99.90;;;;;;4990028;28;19924;-66
2020/12/14 12:09:53;;;;;;;;;;;7.80;99.90;;;;;;5004478;28;19921;-61
2020/12/14 12:12:18;;;;;;;;;;;7.80;99.90;;;;;;4999246;28;19921;-63
2020/12/14 12:14:44;;;;;;;;;;;7.80;99.90;;;;;;4987631;28;20692;-66
2020/12/14 12:17:09;;;;;;;;;;;7.80;99.90;;;;;;5003288;28;20376;-64
2020/12/14 12:19:35;;;;;;;;;;;7.80;99.90;;;;;;4987821;28;20636;-66
2020/12/14 12:22:00;;;;;;;;;;;7.80;99.90;;;;;;4988640;28;19924;-64
2020/12/14 12:24:26;;;;;;;;;;;7.90;99.90;;;;;;5008852;28;19917;-65
2020/12/14 12:26:51;;;;;;;;;;;7.90;99.90;;;;;;4990289;28;20373;-64
2020/12/14 12:29:20;;;;;;;;;;;7.80;99.90;;;;;;4987316;28;20336;-63
2020/12/14 12:31:53;;;;;;;;;;;7.80;99.90;;;;;;4987362;28;20655;-64
2020/12/14 12:34:18;;;;;;;;;;;7.80;99.90;;;;;;4988386;28;19956;-65
2020/12/14 12:36:53;;;;;;;;;;;7.90;99.90;;;;;;4988360;28;20011;-62
2020/12/14 12:39:19;;;;;;;;;;;7.80;99.90;;;;;;4980641;28;20016;-65
2020/12/14 12:41:48;;;;;;;;;;;7.80;99.90;;;;;;4988028;28;20135;-66
2020/12/14 12:44:14;;;;;;;;;;;7.80;99.90;;;;;;4985962;28;19922;-64
2020/12/14 12:46:40;;;;;;;;;;;7.70;99.90;;;;;;4985744;28;19925;-63
2020/12/14 12:49:06;;;;;;;;;;;7.80;99.90;;;;;;4985171;28;20503;-67
2020/12/14 12:51:31;;;;;;;;;;;7.80;99.90;;;;;;4987422;28;20016;-64
2020/12/14 12:53:57;;;;;;;;;;;7.80;99.90;;;;;;4987188;28;19997;-66
2020/12/14 12:56:23;;;;;;;;;;;7.70;99.90;;;;;;4986702;28;19999;-66
2020/12/14 12:58:48;;;;;;;;;;;7.70;99.90;;;;;;4978811;28;19921;-66
2020/12/14 13:01:14;;;;;;;;;;;7.80;99.90;;;;;;4984918;28;20386;-60
2020/12/14 13:03:39;;;;;;;;;;;7.70;99.90;;;;;;4986690;28;20450;-62
2020/12/14 13:06:05;;;;;;;;;;;7.70;99.90;;;;;;4981834;28;20309;-62
2020/12/14 13:08:30;;;;;;;;;;;7.70;99.90;;;;;;4982856;28;20490;-69
2020/12/14 13:10:56;;;;;;;;;;;7.70;99.90;;;;;;4987793;28;19922;-64
2020/12/14 13:13:22;;;;;;;;;;;7.70;99.90;;;;;;4991123;28;19975;-66
2020/12/14 13:15:47;;;;;;;;;;;7.70;99.90;;;;;;4986420;28;19918;-62
2020/12/14 13:18:13;;;;;;;;;;;7.70;99.90;;;;;;4986697;28;19922;-62
2020/12/14 13:20:39;;;;;;;;;;;7.70;99.90;;;;;;4987107;28;19929;-63
2020/12/14 13:23:04;;;;;;;;;;;7.70;99.90;;;;;;4987992;28;19918;-62
2020/12/14 13:25:30;;;;;;;;;;;7.70;99.90;;;;;;4986544;28;19944;-62
2020/12/14 13:27:55;;;;;;;;;;;7.60;99.90;;;;;;4986960;28;19956;-61
2020/12/14 13:30:21;;;;;;;;;;;7.70;99.90;;;;;;4986925;28;20451;-62
2020/12/14 13:32:46;;;;;;;;;;;7.70;99.90;;;;;;4987852;28;19922;-62
2020/12/14 13:35:12;;;;;;;;;;;7.70;99.90;;;;;;4987563;28;20608;-62
2020/12/14 13:37:37;;;;;;;;;;;7.70;99.90;;;;;;4986445;28;19917;-63
2020/12/14 13:40:03;;;;;;;;;;;7.70;99.90;;;;;;4987050;28;20007;-63
2020/12/14 13:42:29;;;;;;;;;;;7.80;99.90;;;;;;4987379;28;20041;-62
2020/12/14 13:44:55;;;;;;;;;;;7.80;99.90;;;;;;4986786;28;19929;-62